Artur Kallaste

Olheiro-Chefe - Nomme Kalju
4 Dez 2027
Sábado
Processo

Personalidade

Adaptabilidade (7) Ambição (11) Controvérsia (8) Lealdade (16) Pressão (5) Profissionalismo (6) Espírito Esportivo (8) Temperamento (17)

Perfil

Estilo de Treinamento Democrático
Licença Nacional B
Determinação 5
Gestão de Pessoas 8
Motivação 3
Disciplina 9
Satisfação no Trabalho
100%
Fadiga
0%
Função Olheiro-Chefe
Salário 39.2K p/s
Contrato 14.03.2028

Desempenho

Comportamento Bom
Eficácia do Treinamento
31%
Desenvolvimento do Jogador
15%
Prevenção de Lesões
45%
Implementação Tática
40%

Eventos Recentes

Participou de uma reunião de recrutamento agora
Participou de uma reunião de recrutamento agora
Participou de uma reunião de recrutamento agora
Avaliou um jogador agora
Avaliou um jogador agora
Avaliou um jogador agora
Avaliou um jogador 7d atrás
Avaliou um jogador 7d atrás

Monitorando agora

172
Jogador Clube Status Habilidade Confiança Observado Última observação Último voto
Marcos Camarda Santiago Wanderers Ativo 112 / 100 40% 2 03.12.2027 -
Dmitriy Vashkevich Lida Ativo 89 / 92 40% 1 03.12.2027 -
Facundo Castelli Estudiantes Ativo 116 / 120 40% 2 02.12.2027 -
Yusuf Otubanjo Nasaf Ativo 126 / 125 40% 1 02.12.2027 -
Santiago Apa All Boys Ativo 100 / 105 40% 3 01.12.2027 -
Joel Kojo Navbahor Ativo 104 / 118 40% 2 01.12.2027 -
Nodirbek Abdurazzoqov AGMK Ativo 115 / 104 40% 2 01.12.2027 -
Siavash Haghnazari AGMK Ativo 85 / 104 40% 1 01.12.2027 -
Facundo Taborda Racing Ativo 106 / 105 40% 1 30.11.2027 -
Rifat Zhemaletdinov Ural Ativo 130 / 118 40% 1 30.11.2027 -
Gianluca Pugliese Güemes Ativo 114 / 103 40% 4 28.11.2027 -
Valeriy Gorbachik Arsenal Dzerzhinsk Ativo 86 / 81 40% 1 28.11.2027 -
Vladislav Fedosov Slutsk Ativo 80 / 84 40% 1 28.11.2027 -
Evgeniy Krasnov Vitebsk Ativo 83 / 98 40% 1 27.11.2027 -
Juan Esteban Ávalo Aguilas Doradas Ativo 110 / 119 40% 1 27.11.2027 -
Facundo Pons San Martín Ativo 122 / 117 40% 2 24.11.2027 -
Luca Franco Arsenal Ativo 106 / 113 40% 1 24.11.2027 -
Marco Miori Alvarado Ativo 123 / 108 40% 2 23.11.2027 -
Gustavo Viera Cerro Largo Ativo 110 / 94 40% 1 23.11.2027 -
Kirill Kirilenko Dnepr Mogilev Ativo 90 / 92 40% 2 22.11.2027 -
Alan Bonansea Colón Ativo 100 / 106 40% 1 22.11.2027 -
Enzo González Defensores Ativo 98 / 102 40% 1 20.11.2027 -
Oscar Osorio Atletico Venezuela Ativo 120 / 113 40% 1 19.11.2027 -
Daouda Natama Minsk Ativo 98 / 94 40% 1 19.11.2027 -
Kirill Tsepenkov Dnepr Mogilev Ativo 92 / 99 40% 3 18.11.2027 -
Agustín Lavezzi Quilmes Ativo 122 / 114 40% 2 18.11.2027 -
Uladzimir Palitsevich Lokomotiv Gomel Ativo 82 / 72 40% 2 17.11.2027 -
Guljigit Borubaev Neman Ativo 103 / 100 40% 3 17.11.2027 -
Fawaz Abdullahi Dinamo Minsk Ativo 112 / 104 40% 1 17.11.2027 -
Juan Pablo Barinaga Patronato Ativo 117 / 122 40% 1 17.11.2027 -
Roman Paparyga Qizilqum Ativo 109 / 89 40% 3 15.11.2027 -
Ljupce Doriev Sogdiana Ativo 108 / 113 40% 1 12.11.2027 -
Rafael Arace Deportivo Tachira Ativo 108 / 106 40% 1 11.11.2027 -
Daniel Sosah Aktobe Ativo 115 / 100 40% 1 09.11.2027 -
Santiago Sala Güemes Ativo 115 / 107 40% 1 09.11.2027 -
Timofey Simanenka Gomel Ativo 100 / 100 40% 1 08.11.2027 -
Oleksiy Shchebetun Qizilqum Ativo 96 / 95 40% 1 08.11.2027 -
Juan David Rueda Alianza Petrolera Ativo 98 / 104 40% 3 07.11.2027 -
Luka Ratković Qizilqum Ativo 105 / 106 40% 1 07.11.2027 -
Ilya Kukharchik Slavia Mozyr Ativo 95 / 82 40% 1 04.11.2027 -
Gafar Saka Plateau United Ativo 93 / 90 40% 1 04.11.2027 -
Chinedu Onyinjekwu Bayelsa United Ativo 95 / 92 40% 1 03.11.2027 -
Rubin Hebaj Tobol Ativo 123 / 104 40% 1 03.11.2027 -
Javohir Sidiqov Kokand 1912 Ativo 118 / 116 40% 1 02.11.2027 -
Mateo Zuleta Once Caldas Ativo 116 / 124 40% 1 02.11.2027 -
Everton Moraes Ordabasy Ativo 107 / 116 40% 2 31.10.2027 -
Anvar Murodov Mashal Ativo 78 / 74 40% 1 31.10.2027 -
Léo Natel Ordabasy Ativo 130 / 113 40% 1 30.10.2027 -
Raúl Lozano Quilmes Ativo 128 / 123 40% 1 29.10.2027 -
Aleksandar Boljević Sogdiana Ativo 113 / 110 40% 1 29.10.2027 -
Enzo Avaro Mitre Ativo 101 / 117 40% 1 29.10.2027 -
Ángel González Ferro Carril Oeste Ativo 101 / 111 40% 1 28.10.2027 -
Augusto Berrondo Tristán Suárez Ativo 100 / 110 40% 2 26.10.2027 -
Tiziano Dornell Almagro Ativo 108 / 124 40% 2 25.10.2027 -
Vladimir Rodić Bukhara Ativo 114 / 109 40% 2 24.10.2027 -
Federico Versaci Talleres Ativo 123 / 112 40% 2 24.10.2027 -
Zoran Marušić Neftchi Ativo 96 / 107 40% 1 24.10.2027 -
Mollo Bessala Levadia Ativo 107 / 110 40% 1 22.10.2027 -
Jhon Murillo America de Cali Ativo 133 / 114 40% 1 22.10.2027 -
Claudio Salto Almagro Ativo 100 / 97 40% 1 20.10.2027 -
Matías Viguet Maipú Ativo 117 / 118 40% 1 20.10.2027 -
Jonathan Cañete Portuguesa Ativo 116 / 105 40% 1 20.10.2027 -
Maximiliano Rueda Patronato Ativo 118 / 117 40% 1 19.10.2027 -
Martín Álvarez Tristán Suárez Ativo 110 / 111 40% 1 17.10.2027 -
Nicolás Mosca Atlanta Ativo 104 / 102 40% 1 17.10.2027 -
Ramón González Almirante Brown Ativo 115 / 107 40% 1 17.10.2027 -
Ricardo Centurión Racing Ativo 122 / 104 40% 1 16.10.2027 -
Rick Talleres Ativo 134 / 123 40% 1 16.10.2027 -
Ruslan Teverov Smorgon Ativo 82 / 98 40% 1 13.10.2027 -
Yehor Kondratiuk Kokand 1912 Ativo 79 / 95 40% 1 13.10.2027 -
Lucas Ríos Atlanta Ativo 129 / 108 40% 1 10.10.2027 -
Amine Talal Tobol Ativo 119 / 103 40% 1 09.10.2027 -
Steven Alfred Torpedo-BelAZ Ativo 99 / 108 40% 1 09.10.2027 -
Kirill Danilin Dinamo Brest Ativo 108 / 111 40% 1 08.10.2027 -
Santiago Vera Almirante Brown Ativo 117 / 112 40% 1 08.10.2027 -
Ivan Zenkov Dinamo Brest Ativo 91 / 100 40% 1 06.10.2027 -
Anton Betyuzhnov Dinamo Vologda Ativo 83 / 79 40% 1 15.07.2027 -
Georgy Melkadze Akhmat Grozny Ativo 128 / 114 40% 1 15.07.2027 -
Kamran Aliev SKA Khabarovsk Ativo 107 / 110 40% 2 14.07.2027 -
Roberto Insigne Catania Ativo 107 / 105 40% 1 14.07.2027 -
Danil Lipovoy Ufa Ativo 112 / 106 40% 2 13.07.2027 -
Doniyor Abdumannopov Andijon Ativo 104 / 110 40% 1 12.07.2027 -
Georgi Tunjov Pro Patria Ativo 101 / 105 40% 1 12.07.2027 -
Darko Todorović Fakel Ativo 112 / 117 40% 6 11.07.2027 -
Mariano Miño Modena Ativo 120 / 121 40% 1 11.07.2027 -
Vyacheslav Yakimov Fakel Ativo 107 / 106 40% 1 10.07.2027 -
Cyrus Christie Bolton Wanderers Ativo 119 / 115 40% 1 10.07.2027 -
Edarlyn Reyes Arsenal Tula Ativo 118 / 108 40% 5 09.07.2027 -
Davis Mensah Cittadella Ativo 128 / 123 40% 2 06.07.2027 -
Luis Guerra Astana Ativo 101 / 113 40% 1 05.07.2027 -
Andrey Mazurin Yenisey Ativo 107 / 107 40% 5 04.07.2027 -
Rio Adébísí Peterborough United Ativo 94 / 111 40% 2 04.07.2027 -
Alexandr Saplinov Volga Ativo 92 / 102 40% 2 02.07.2027 -
Krasian Kolev Chernomorets Rejeitado 108 / 106 40% 1 02.07.2027 -
Thomas Ince Watford Ativo 123 / 116 40% 1 26.06.2027 -
Jacopo Manconi Casertana Ativo 105 / 123 40% 1 23.06.2027 -
Davide Di Molfetta Union Brescia Ativo 136 / 125 40% 1 23.06.2027 -
Garrik Levin Chelyabinsk Ativo 93 / 96 40% 3 22.06.2027 -
Brendan Wiredu Plymouth Argyle Ativo 108 / 110 40% 1 22.06.2027 -
James Tilley Wycombe Wanderers Ativo 90 / 89 40% 1 21.06.2027 -
Jordan Gabriel Port Vale Ativo 114 / 114 40% 1 21.06.2027 -
Mark Maksimkin Narva Trans Ativo 81 / 87 51% 1 07.06.2027 -
Murad Velijev Narva Trans Perdido 84 / 80 51% 1 04.06.2027 -
Josué Doké Narva Trans Ativo 92 / 80 51% 1 02.06.2027 -
Roman Zaschepkin KAMAZ Ativo 90 / 89 40% 1 31.05.2027 -
Henri Anier Paide Ativo 98 / 87 51% 1 25.01.2027 -
Edgar Tur Paide Ativo 88 / 99 51% 1 11.01.2027 -
Cristian Campagna Narva Trans Ativo 73 / 87 51% 1 04.01.2027 Observar
Kenan Dervišagić Floriana Ativo 86 / 87 40% 1 02.01.2027 -
German Onugkha Rodina Ativo 119 / 113 40% 1 02.01.2027 -
Rustam Asenchukov Rostov Ativo 57 / 69 40% 1 30.12.2026 -
Ramazan Gadjimuradov Chelyabinsk Ativo 107 / 99 40% 2 28.12.2026 -
Vladislav Ignatenko Amkar Ativo 84 / 83 40% 2 27.12.2026 -
Evgeny Voronin Volga Ativo 86 / 85 40% 2 23.12.2026 -
Iker Pozo Rodina Ativo 124 / 119 40% 1 23.12.2026 -
Leo Goglichidze Rodina Ativo 109 / 121 40% 2 19.12.2026 -
Igor Konovalov Chernomorets Ativo 92 / 104 40% 1 19.12.2026 -
Alan Tsaraev Arsenal Tula Ativo 93 / 107 40% 1 15.12.2026 -
Daniil Gurchenko Spartak Tambov Ativo 96 / 88 40% 1 15.12.2026 -
Danil Khromov Dinamo Stavropol Ativo 79 / 67 40% 1 14.12.2026 -
Nikita Yershov Kosmos Ativo 83 / 84 40% 2 13.12.2026 -
Timofey Shipunov Ufa Ativo 85 / 92 40% 3 13.12.2026 -
Krasian Kolev Chernomorets Perdido 102 / 101 40% 1 12.12.2026 -
Soltmurad Bakaev Rodina Ativo 106 / 95 40% 3 10.12.2026 Observar
Artem Simonyan Rotor Ativo 92 / 96 40% 1 06.12.2026 -
Muhammad Sultonov KAMAZ Ativo 101 / 88 40% 1 04.12.2026 -
Fanil Sungatulin Ural Ativo 102 / 102 40% 2 01.12.2026 -
Magomednabi Yagjaev Nart Ativo 72 / 86 40% 1 29.11.2026 -
Anatoliy Makarov Leningradets Ativo 83 / 100 40% 1 27.11.2026 -
Miloš Brnović Arsenal Tula Ativo 115 / 107 40% 1 25.11.2026 -
Dmitry Kuchugura Veles Ativo 92 / 83 40% 1 24.11.2026 -
Danila Shilov Dinamo Stavropol Ativo 101 / 85 40% 1 24.11.2026 -
Roman Zobnin Spartak Moscow Ativo 126 / 127 40% 1 23.11.2026 -
Kristijan Bistrović Akron Ativo 127 / 112 40% 1 23.11.2026 -
David Kokoev Yenisey Ativo 96 / 97 40% 1 21.11.2026 -
Léo Cordeiro Ural Ativo 116 / 120 40% 1 20.11.2026 -
Nikolay Giorgobiani Fakel Ativo 99 / 110 40% 1 19.11.2026 -
Maxim Khramtsov Rotor Ativo 80 / 95 40% 1 19.11.2026 -
Batraz Gurtsiev Alania Ativo 90 / 92 40% 2 15.11.2026 -
Arshak Koryan SKA Khabarovsk Ativo 104 / 88 40% 1 15.11.2026 -
Maxim Polyakov Textilschik Ativo 94 / 85 40% 1 13.11.2026 -
Kevin Pina Krasnodar Ativo 130 / 123 40% 1 07.11.2026 -
Alexey Vakulich Arsenal Tula Ativo 104 / 100 40% 1 07.11.2026 -
Nikolay Boyarkin Salyut Ativo 77 / 93 40% 2 05.11.2026 -
Evgeny Kharin Ural Ativo 97 / 94 40% 1 05.11.2026 -
Razhab Magomedov Dinamo Makhachkala Ativo 101 / 96 40% 1 03.11.2026 -
Vladislav Kamilov Ufa Ativo 115 / 108 40% 1 03.11.2026 -
Ibragim Umarov Pobeda Ativo 78 / 98 40% 1 02.11.2026 -
Alexandr Troshechkin Rotor Ativo 114 / 99 40% 1 02.11.2026 -
Damián Puebla Orenburg Ativo 115 / 119 40% 2 30.10.2026 -
Danil Poluboyarinov Volgar Ativo 81 / 94 40% 1 29.10.2026 -
Ilja Zhigulev Chernomorets Ativo 96 / 97 40% 1 29.10.2026 -
Nikita Demchenko Spartak Kostroma Ativo 96 / 97 40% 1 25.10.2026 -
Alexandr Lomakin Yenisey Ativo 96 / 106 40% 1 25.10.2026 -
Luka Gagnidze Dinamo Moscow Ativo 104 / 113 40% 1 23.10.2026 -
Gleb Shevchenko Torpedo Moscow Ativo 110 / 100 40% 1 21.10.2026 -
Kirill Korolkov Veles Ativo 94 / 96 40% 1 20.10.2026 -
Alexandr Bem Tyumen Ativo 89 / 97 40% 1 18.10.2026 -
Ilja Vakhania Krasnodar Ativo 132 / 128 40% 1 16.10.2026 -
Alexandr Lomovitskiy Torpedo-BelAZ Ativo 106 / 105 40% 1 14.10.2026 -
Vladislav Adaev Volgar Ativo 80 / 78 40% 1 14.10.2026 -
Andrey Khityaev Rotor Ativo 83 / 85 40% 1 11.10.2026 -
Golden Mafwenta Naftan Ativo 94 / 98 40% 1 10.10.2026 -
Vladislav Lyakh Dinamo Brest Ativo 88 / 92 40% 1 10.10.2026 -
Anton Suchkov Neman Ativo 101 / 99 40% 1 08.10.2026 -
Vladislav Zhuravlev Isloch Ativo 82 / 88 40% 1 08.10.2026 -
Oleg Evdokimov Neman Ativo 102 / 96 40% 1 05.10.2026 -
Leonard Chatelin Gweth Dinamo Minsk Ativo 80 / 99 40% 1 31.08.2026 -
Mairo Miil Tammeka Ativo 67 / 78 48% 1 17.08.2026 -
Vladislav Lozhkin Dinamo Brest Ativo 89 / 103 40% 1 02.08.2026 -
Alexandr Butko Isloch Ativo 75 / 76 40% 1 01.08.2026 -
Edwuin Cetré Estudiantes Ativo 115 / 118 40% 1 01.08.2026 -